La Harpe, Kansas
Current Conditions -  °F | °C
As of 4:52 AM on Friday 31 Oct 2014 (Local Time) from KCNU Reporting Station
Scattered Clouds Scattered Clouds  
Wind Chill: 41°   Ceiling: Unl
Heat Index: 46°   Visibility: 10mi
Dew Point: 41°   Wind: 12mph
Humidity: 83%   Direction: 340°NNW
Pressure: 30.3"   Gusts: NA
Location:  37.92°N, 95.3°W
Report Text: KCNU 310952Z AUTO 34010KT 10SM SCT026 08/05 A3030 RMK AO2 SLP256 T00780050
Loading
Personal Weather Stations






























Interactive Weather Map
Tropical Storm Tracking
New forecast layout! Learn more

10-Day Weather Forecast

Advertisements
Track Severe Weather on mobile